createdAt,value
2023-09-23T09:29:20.550Z,13.12
2023-09-23T09:31:55.986Z,13.22
2023-09-23T09:34:32.227Z,13.36
2023-09-23T09:37:06.836Z,13.60
2023-09-23T09:39:45.709Z,13.82
2023-09-23T09:42:24.895Z,13.95
2023-09-23T09:45:00.203Z,14.16
2023-09-23T09:47:32.590Z,14.13
2023-09-23T09:50:05.818Z,14.43
2023-09-23T09:52:44.421Z,14.26
2023-09-23T09:55:20.328Z,14.26
2023-09-23T09:57:56.171Z,14.51
2023-09-23T10:00:28.738Z,14.77
2023-09-23T10:03:02.196Z,14.51
2023-09-23T10:05:33.992Z,14.73
2023-09-23T10:08:17.231Z,14.85
2023-09-23T10:10:50.486Z,14.77
2023-09-23T10:13:25.022Z,14.86
2023-09-23T10:16:14.409Z,14.41
2023-09-23T10:18:55.370Z,14.90
2023-09-23T10:21:31.728Z,14.92
2023-09-23T10:24:06.632Z,15.11
2023-09-23T10:26:44.861Z,15.21
2023-09-23T10:29:16.492Z,14.80
2023-09-23T10:31:48.136Z,14.71
2023-09-23T10:34:19.682Z,14.88
2023-09-23T10:36:52.131Z,14.73
2023-09-23T10:39:24.059Z,14.82
2023-09-23T10:41:55.625Z,15.04
2023-09-23T10:44:27.497Z,14.74
2023-09-23T10:47:00.004Z,14.55
2023-09-23T10:49:31.654Z,14.82
2023-09-23T10:52:03.326Z,15.04
2023-09-23T10:54:36.105Z,15.04
2023-09-23T10:57:07.757Z,15.24
2023-09-23T10:59:39.518Z,15.42
2023-09-23T11:02:12.494Z,15.25
2023-09-23T11:04:50.843Z,15.40
2023-09-23T11:07:22.501Z,15.13
2023-09-23T11:09:55.212Z,15.21
2023-09-23T11:12:33.818Z,15.34
2023-09-23T11:15:08.381Z,15.42
2023-09-23T11:17:42.664Z,14.96
2023-09-23T11:20:14.675Z,15.00
2023-09-23T11:22:46.350Z,14.84
2023-09-23T11:25:19.398Z,14.55
2023-09-23T11:27:52.258Z,15.01
2023-09-23T11:30:24.051Z,15.09
2023-09-23T11:32:57.422Z,15.19
2023-09-23T11:35:29.105Z,15.30
2023-09-23T11:38:00.710Z,15.33
2023-09-23T11:40:32.867Z,15.53
2023-09-23T11:43:05.340Z,15.50
2023-09-23T11:45:36.947Z,15.57
2023-09-23T11:48:10.078Z,15.43
2023-09-23T11:50:42.015Z,15.05
2023-09-23T11:53:14.726Z,15.20
2023-09-23T11:55:46.844Z,15.15
2023-09-23T11:58:18.525Z,15.33
2023-09-23T12:00:50.156Z,15.16
2023-09-23T12:03:21.879Z,15.19
2023-09-23T12:05:55.629Z,15.24
2023-09-23T12:08:28.143Z,15.08
2023-09-23T12:11:00.296Z,15.04
2023-09-23T12:13:31.870Z,15.24
2023-09-23T12:16:03.579Z,15.35
2023-09-23T12:18:35.139Z,15.34
2023-09-23T12:21:06.684Z,15.23
2023-09-23T12:23:38.968Z,15.20
2023-09-23T12:26:13.721Z,15.22
2023-09-23T12:28:45.717Z,14.92
2023-09-23T12:31:17.356Z,15.15
2023-09-23T12:33:49.002Z,15.15
2023-09-23T12:36:20.689Z,15.19
2023-09-23T12:38:53.801Z,15.44
2023-09-23T12:41:25.435Z,15.50
2023-09-23T12:43:58.324Z,15.68
2023-09-23T12:46:29.926Z,15.76
2023-09-23T12:49:01.526Z,15.83
2023-09-23T12:51:33.137Z,15.56
2023-09-23T12:54:05.057Z,15.66
2023-09-23T12:56:39.901Z,15.71
2023-09-23T12:59:11.479Z,15.91
2023-09-23T13:01:44.244Z,15.87
2023-09-23T13:04:15.903Z,16.08
2023-09-23T13:06:48.499Z,15.94
2023-09-23T13:09:20.105Z,16.10
2023-09-23T13:11:51.715Z,16.59
2023-09-23T13:14:23.459Z,16.83
2023-09-23T13:16:55.075Z,16.81
2023-09-23T13:19:26.777Z,17.15
2023-09-23T13:21:58.358Z,17.19
2023-09-23T13:24:32.500Z,17.26
2023-09-23T13:27:05.300Z,16.33
2023-09-23T13:29:36.909Z,15.72
2023-09-23T13:32:08.596Z,15.52
2023-09-23T13:34:40.988Z,15.61
2023-09-23T13:37:14.117Z,15.95
2023-09-23T13:39:45.744Z,15.58
2023-09-23T13:42:17.300Z,15.71
2023-09-23T13:44:51.147Z,15.68
2023-09-23T13:47:22.986Z,15.86
2023-09-23T13:49:54.614Z,15.46
2023-09-23T13:52:26.253Z,15.21
2023-09-23T13:54:58.572Z,15.41
2023-09-23T13:57:29.950Z,15.17
2023-09-23T14:00:02.129Z,15.06
2023-09-23T14:02:33.759Z,14.88
2023-09-23T14:05:05.874Z,14.80
2023-09-23T14:07:38.270Z,14.86
2023-09-23T14:10:20.380Z,14.89
2023-09-23T14:12:53.723Z,14.97
2023-09-23T14:15:25.258Z,14.93
2023-09-23T14:17:57.122Z,15.02
2023-09-23T14:20:29.149Z,14.93
2023-09-23T14:23:00.770Z,15.08
2023-09-23T14:25:32.314Z,14.84
2023-09-23T14:28:04.036Z,14.80
2023-09-23T14:30:35.627Z,14.88
2023-09-23T14:33:07.208Z,14.85
2023-09-23T14:35:38.925Z,14.93
2023-09-23T14:38:10.685Z,14.89
2023-09-23T14:40:42.248Z,14.86
2023-09-23T14:43:13.861Z,14.93
2023-09-23T14:45:45.375Z,14.94
2023-09-23T14:48:17.089Z,14.81
2023-09-23T14:50:48.686Z,14.95
2023-09-23T14:53:21.524Z,14.95
2023-09-23T14:55:53.140Z,15.04
2023-09-23T14:58:25.090Z,15.13
2023-09-23T15:00:56.693Z,15.04
2023-09-23T15:03:28.453Z,15.14
2023-09-23T15:06:00.055Z,15.20
2023-09-23T15:08:33.156Z,15.04
2023-09-23T15:11:07.730Z,15.22
2023-09-23T15:13:40.002Z,15.21
2023-09-23T15:16:11.527Z,15.32
2023-09-23T15:18:43.097Z,15.46
2023-09-23T15:21:14.675Z,15.69
2023-09-23T15:23:46.313Z,15.38
2023-09-23T15:26:18.847Z,16.05
2023-09-23T15:28:50.665Z,16.24
2023-09-23T15:31:22.190Z,16.96
2023-09-23T15:33:53.901Z,17.52
2023-09-23T15:36:25.499Z,19.30
2023-09-23T15:38:57.348Z,20.72
2023-09-23T15:41:28.973Z,20.54
2023-09-23T15:44:00.646Z,20.53
2023-09-23T15:46:32.825Z,20.00
2023-09-23T15:49:04.698Z,19.31
2023-09-23T15:51:36.288Z,19.15
2023-09-23T15:54:07.866Z,18.43
2023-09-23T15:56:41.167Z,18.52
2023-09-23T15:59:13.010Z,17.94
2023-09-23T16:01:44.577Z,16.89
2023-09-23T16:04:16.389Z,17.02
2023-09-23T16:06:48.243Z,16.41
2023-09-23T16:09:20.506Z,16.29
2023-09-23T16:11:53.192Z,16.20
2023-09-23T16:14:26.351Z,16.03
2023-09-23T16:16:58.397Z,15.91
2023-09-23T16:19:30.835Z,15.92
2023-09-23T16:22:03.713Z,15.87
2023-09-23T16:24:35.285Z,15.90
2023-09-23T16:27:06.852Z,15.88
2023-09-23T16:29:38.401Z,15.82
2023-09-23T16:32:10.016Z,15.74
2023-09-23T16:34:41.774Z,15.51
2023-09-23T16:37:13.421Z,15.25
2023-09-23T16:39:45.074Z,15.21
2023-09-23T16:42:16.632Z,15.04
2023-09-23T16:44:48.236Z,15.01
2023-09-23T16:47:19.912Z,14.93
2023-09-23T16:49:51.448Z,14.60
2023-09-23T16:52:22.971Z,14.66
2023-09-23T16:54:54.506Z,14.62
2023-09-23T16:57:26.549Z,14.55
2023-09-23T16:59:58.580Z,14.51
2023-09-23T17:02:30.465Z,14.48
2023-09-23T17:05:02.225Z,14.39
2023-09-23T17:07:33.881Z,14.34
2023-09-23T17:10:05.959Z,14.23
2023-09-23T17:12:38.232Z,14.21
2023-09-23T17:15:09.952Z,14.17
2023-09-23T17:17:41.608Z,14.14
2023-09-23T17:20:15.665Z,14.14
2023-09-23T17:22:47.258Z,14.07
2023-09-23T17:25:18.791Z,13.97
2023-09-23T17:27:50.319Z,13.97
2023-09-23T17:30:22.704Z,13.91
2023-09-23T17:32:54.519Z,13.93
2023-09-23T17:35:26.201Z,13.92
2023-09-23T17:37:57.737Z,13.89
2023-09-23T17:40:29.256Z,13.86
2023-09-23T17:43:00.808Z,13.84
2023-09-23T17:45:32.318Z,13.84
2023-09-23T17:48:04.866Z,13.80
2023-09-23T17:50:37.261Z,13.68
2023-09-23T17:53:08.981Z,13.66
2023-09-23T17:55:40.629Z,13.62
2023-09-23T17:58:12.253Z,13.62
2023-09-23T18:00:43.934Z,13.58
2023-09-23T18:03:16.282Z,13.50
2023-09-23T18:05:47.986Z,13.44
2023-09-23T18:08:19.690Z,13.46
2023-09-23T18:10:54.667Z,13.44
2023-09-23T18:13:28.288Z,13.43
2023-09-23T18:15:59.829Z,13.37
2023-09-23T18:18:31.552Z,13.36
2023-09-23T18:21:03.207Z,13.29
2023-09-23T18:23:35.589Z,13.25
2023-09-23T18:26:07.297Z,13.19
2023-09-23T18:28:39.166Z,13.12
2023-09-23T18:31:10.777Z,13.08
2023-09-23T18:33:42.428Z,13.08
2023-09-23T18:36:14.641Z,13.03
2023-09-23T18:38:46.782Z,13.02
2023-09-23T18:41:18.508Z,12.98
2023-09-23T18:43:50.214Z,13.00
2023-09-23T18:46:21.824Z,12.93
2023-09-23T18:48:53.739Z,12.93
2023-09-23T18:51:25.915Z,12.85
2023-09-23T18:53:57.579Z,12.84
2023-09-23T18:56:29.213Z,12.79
2023-09-23T18:59:01.133Z,12.73
2023-09-23T19:01:33.833Z,12.67
2023-09-23T19:04:05.820Z,12.65
2023-09-23T19:06:37.882Z,12.63
2023-09-23T19:09:10.351Z,12.62
2023-09-23T19:11:41.946Z,12.60
2023-09-23T19:14:16.285Z,12.56
2023-09-23T19:16:47.941Z,12.53
2023-09-23T19:19:19.470Z,12.52
2023-09-23T19:21:51.127Z,12.54
2023-09-23T19:24:22.716Z,12.53
2023-09-23T19:26:57.400Z,12.51
2023-09-23T19:29:29.373Z,12.45
2023-09-23T19:32:01.143Z,12.46
2023-09-23T19:34:33.007Z,12.49
2023-09-23T19:37:04.534Z,12.43
2023-09-23T19:39:38.017Z,12.41
2023-09-23T19:42:10.890Z,12.36
2023-09-23T19:44:43.634Z,12.34
2023-09-23T19:47:17.113Z,12.32
2023-09-23T19:49:51.631Z,12.30
2023-09-23T19:52:23.411Z,12.31
2023-09-23T19:54:55.541Z,12.29
2023-09-23T19:57:30.660Z,12.27
2023-09-23T20:00:05.098Z,12.26
2023-09-23T20:02:36.815Z,12.23
2023-09-23T20:05:11.902Z,12.15
2023-09-23T20:07:43.745Z,12.14
2023-09-23T20:10:16.774Z,12.17
2023-09-23T20:12:48.685Z,12.15
2023-09-23T20:15:20.268Z,12.13
2023-09-23T20:17:57.486Z,12.11
2023-09-23T20:20:30.530Z,12.09
2023-09-23T20:23:05.445Z,12.07
2023-09-23T20:25:37.228Z,12.08
2023-09-23T20:28:09.109Z,12.06
2023-09-23T20:30:40.718Z,12.08
2023-09-23T20:33:12.486Z,12.08
2023-09-23T20:35:45.648Z,12.07
2023-09-23T20:38:17.328Z,12.09
2023-09-23T20:40:50.057Z,12.10
2023-09-23T20:43:21.649Z,12.12
2023-09-23T20:45:53.287Z,12.11
2023-09-23T20:48:25.034Z,12.11
2023-09-23T20:50:57.040Z,12.15
2023-09-23T20:53:28.849Z,12.16
2023-09-23T20:56:00.454Z,12.18
2023-09-23T20:58:32.049Z,12.20
2023-09-23T21:01:05.983Z,12.22
2023-09-23T21:03:37.659Z,12.21
2023-09-23T21:06:09.993Z,12.19
2023-09-23T21:08:41.585Z,12.20
2023-09-23T21:11:14.289Z,12.22
2023-09-23T21:13:46.767Z,12.22
2023-09-23T21:16:18.572Z,12.26
2023-09-23T21:18:50.349Z,12.27
2023-09-23T21:21:23.704Z,12.22
2023-09-23T21:23:55.702Z,12.13
2023-09-23T21:26:30.315Z,12.12
2023-09-23T21:29:01.980Z,12.07
2023-09-23T21:31:34.079Z,12.08
2023-09-23T21:34:05.643Z,12.03
2023-09-23T21:36:40.107Z,11.98
2023-09-23T21:39:12.409Z,11.99
2023-09-23T21:41:43.820Z,12.00
2023-09-23T21:44:15.537Z,12.06
2023-09-23T21:46:47.144Z,12.03
2023-09-23T21:49:18.817Z,12.08
2023-09-23T21:51:50.431Z,12.09
2023-09-23T21:54:22.031Z,12.11
2023-09-23T21:56:53.677Z,12.15
2023-09-23T21:59:25.237Z,12.17
2023-09-23T22:01:56.800Z,12.18
2023-09-23T22:04:28.537Z,12.20
2023-09-23T22:07:00.187Z,12.22
2023-09-23T22:09:31.988Z,12.22
2023-09-23T22:12:03.800Z,12.23
2023-09-23T22:14:35.784Z,12.22
2023-09-23T22:17:07.348Z,12.17
2023-09-23T22:19:40.342Z,12.16
2023-09-23T22:22:17.052Z,12.19
2023-09-23T22:24:48.869Z,12.16
2023-09-23T22:27:21.941Z,12.16
2023-09-23T22:29:54.104Z,12.20
2023-09-23T22:32:25.831Z,12.21
2023-09-23T22:34:57.977Z,12.23
2023-09-23T22:37:29.766Z,12.23
2023-09-23T22:40:03.414Z,12.14
2023-09-23T22:42:35.229Z,12.18
2023-09-23T22:45:13.108Z,12.20
2023-09-23T22:47:52.285Z,12.18
2023-09-23T22:50:24.177Z,12.17
2023-09-23T22:52:57.333Z,12.17
2023-09-23T22:55:29.105Z,12.18
2023-09-23T22:58:00.687Z,12.20
2023-09-23T23:00:36.089Z,12.12
2023-09-23T23:03:08.092Z,11.94
2023-09-23T23:05:40.110Z,11.88
2023-09-23T23:08:12.162Z,11.89
2023-09-23T23:10:43.677Z,11.93
2023-09-23T23:13:15.293Z,11.91
2023-09-23T23:15:49.516Z,11.87
2023-09-23T23:18:21.148Z,11.90
2023-09-23T23:20:52.821Z,11.89
2023-09-23T23:23:25.295Z,11.86
2023-09-23T23:25:57.540Z,11.85
2023-09-23T23:28:29.157Z,11.89
2023-09-23T23:31:01.254Z,11.91
2023-09-23T23:33:33.125Z,11.84
2023-09-23T23:36:06.063Z,11.90
2023-09-23T23:38:38.640Z,11.93
2023-09-23T23:41:10.275Z,11.93
2023-09-23T23:43:41.919Z,11.96
2023-09-23T23:46:14.340Z,11.96
2023-09-23T23:48:48.898Z,11.96
2023-09-23T23:51:23.925Z,11.99
2023-09-23T23:53:55.677Z,12.00
2023-09-23T23:56:28.339Z,11.98
2023-09-23T23:59:01.387Z,11.99
